Time;durP1;ratioP1;P1;durP2;ratioP2;P2;SDS_P1;SDS_P2;PMS_P1;PMS_P2;Temp;Humidity;BMP_temperature;BMP_pressure;BME280_temperature;BME280_humidity;BME280_pressure;Samples;Min_cycle;Max_cycle;Signal;HPM_P1;HPM_P2
2022/05/28 00:02:13;;;;;;;;;;;;;;;9.76;100.00;98793.69;1666596;85;20085;-70
2022/05/28 00:04:39;;;;;;;;;;;;;;;9.77;100.00;98779.42;1666529;85;20085;-70
2022/05/28 00:07:12;;;;;;;;;;;;;;;9.76;100.00;98764.11;1693407;85;21138;-70
2022/05/28 00:09:44;;;;;;;;;;;;;;;9.75;100.00;98746.86;1681711;83;20144;-70
2022/05/28 00:12:10;;;;;;;;;;;;;;;9.77;100.00;98747.90;1687849;84;20101;-71
2022/05/28 00:14:36;;;;;;;;;;;;;;;9.79;100.00;98744.27;1684137;84;20149;-69
2022/05/28 00:17:06;;;;;;;;;;;;;;;9.78;100.00;98746.20;1678424;84;20180;-69
2022/05/28 00:19:34;;;;;;;;;;;;;;;9.75;100.00;98761.93;1686560;84;21139;-71
2022/05/28 00:22:17;;;;;;;;;;;;;;;9.73;100.00;98762.83;1680415;84;20194;-71
2022/05/28 00:24:33;;;;;;;;;;;;;;;9.71;100.00;98760.17;1676704;84;20087;-70
2022/05/28 00:27:09;;;;;;;;;;;;;;;9.71;100.00;98736.31;1678109;83;20120;-71
2022/05/28 00:29:36;;;;;;;;;;;;;;;9.72;100.00;98761.78;1677562;84;20255;-70
2022/05/28 00:32:05;;;;;;;;;;;;;;;9.72;100.00;98772.75;1680381;84;21171;-70
2022/05/28 00:34:48;;;;;;;;;;;;;;;9.71;100.00;98762.92;1680353;84;20132;-71
2022/05/28 00:37:11;;;;;;;;;;;;;;;9.70;100.00;98767.59;1665381;84;20163;-69
2022/05/28 00:39:41;;;;;;;;;;;;;;;9.71;100.00;98780.17;1665320;86;20095;-70
2022/05/28 00:42:15;;;;;;;;;;;;;;;9.72;100.00;98791.37;1639323;86;20466;-70
2022/05/28 00:44:44;;;;;;;;;;;;;;;9.72;100.00;98788.63;1638421;86;20462;-69
2022/05/28 00:47:19;;;;;;;;;;;;;;;9.72;100.00;98778.23;1628245;88;20157;-70
2022/05/28 00:49:47;;;;;;;;;;;;;;;9.68;100.00;98783.56;1610118;88;20138;-70
2022/05/28 00:52:28;;;;;;;;;;;;;;;9.66;100.00;98779.55;1610321;88;20129;-70
2022/05/28 00:54:46;;;;;;;;;;;;;;;9.64;100.00;98783.98;1606726;88;20096;-69
2022/05/28 00:57:23;;;;;;;;;;;;;;;9.63;100.00;98796.07;1608059;89;21239;-69
2022/05/28 00:59:54;;;;;;;;;;;;;;;9.60;100.00;98809.06;1601393;89;20444;-70
2022/05/28 01:02:41;;;;;;;;;;;;;;;9.58;100.00;98798.98;1610055;89;20148;-70
2022/05/28 01:05:20;;;;;;;;;;;;;;;9.56;100.00;98779.33;1611000;89;20088;-70
2022/05/28 01:08:05;;;;;;;;;;;;;;;9.55;100.00;98771.67;1610149;89;20448;-69
2022/05/28 01:10:55;;;;;;;;;;;;;;;9.57;100.00;98780.94;1665749;86;20107;-69
2022/05/28 01:13:51;;;;;;;;;;;;;;;9.56;100.00;98786.18;1664171;86;20104;-69
2022/05/28 01:16:38;;;;;;;;;;;;;;;9.56;100.00;98791.66;1577349;90;20452;-69
2022/05/28 01:19:29;;;;;;;;;;;;;;;9.55;100.00;98788.12;1579599;89;20137;-69
2022/05/28 01:22:09;;;;;;;;;;;;;;;9.55;100.00;98789.48;1603524;89;20522;-69
2022/05/28 01:24:45;;;;;;;;;;;;;;;9.56;100.00;98780.70;1640903;84;21178;-69
2022/05/28 01:27:17;;;;;;;;;;;;;;;9.53;100.00;98788.20;1695138;83;20413;-69
2022/05/28 01:29:49;;;;;;;;;;;;;;;9.52;100.00;98793.45;1667095;84;20121;-69
2022/05/28 01:32:25;;;;;;;;;;;;;;;9.49;100.00;98789.98;1695150;84;20121;-69
2022/05/28 01:35:05;;;;;;;;;;;;;;;9.47;100.00;98784.03;1684070;83;20103;-70
2022/05/28 01:37:29;;;;;;;;;;;;;;;9.47;100.00;98777.98;1660157;84;40973;-70
2022/05/28 01:40:01;;;;;;;;;;;;;;;9.47;100.00;98786.20;1684430;84;20085;-68
2022/05/28 01:42:27;;;;;;;;;;;;;;;9.46;100.00;98787.34;1664409;84;20130;-71
2022/05/28 01:44:56;;;;;;;;;;;;;;;9.45;100.00;98768.48;1694982;84;20133;-74
2022/05/28 01:47:31;;;;;;;;;;;;;;;9.44;100.00;98747.14;1654056;84;20093;-70
2022/05/28 01:49:58;;;;;;;;;;;;;;;9.44;100.00;98755.92;1693835;84;20078;-70
2022/05/28 01:52:25;;;;;;;;;;;;;;;9.44;100.00;98754.55;1693279;84;20104;-70
2022/05/28 01:55:02;;;;;;;;;;;;;;;9.43;100.00;98777.59;1693835;84;20449;-71
2022/05/28 01:57:37;;;;;;;;;;;;;;;9.44;100.00;98788.80;1693450;85;20085;-71
2022/05/28 02:00:10;;;;;;;;;;;;;;;9.43;100.00;98783.08;1693140;84;20164;-71
2022/05/28 02:02:39;;;;;;;;;;;;;;;9.43;100.00;98777.59;1666747;85;20121;-71
2022/05/28 02:05:14;;;;;;;;;;;;;;;9.43;100.00;98783.08;1693512;85;20081;-71
2022/05/28 02:07:42;;;;;;;;;;;;;;;9.43;100.00;98783.88;1666405;85;20085;-72
2022/05/28 02:10:11;;;;;;;;;;;;;;;9.45;100.00;98772.59;1693428;84;20093;-70
2022/05/28 02:12:47;;;;;;;;;;;;;;;9.46;100.00;98779.12;1692987;85;20105;-70
2022/05/28 02:15:34;;;;;;;;;;;;;;;9.47;100.00;98777.19;1692896;84;21228;-72
2022/05/28 02:18:06;;;;;;;;;;;;;;;9.47;100.00;98779.92;1692820;85;20085;-72
2022/05/28 02:20:39;;;;;;;;;;;;;;;9.47;100.00;98786.20;1686528;84;20114;-70
2022/05/28 02:23:30;;;;;;;;;;;;;;;9.49;100.00;98780.40;1655400;85;20097;-70
2022/05/28 02:26:21;;;;;;;;;;;;;;;9.49;100.00;98777.66;1678574;84;20519;-72
2022/05/28 02:28:48;;;;;;;;;;;;;;;9.52;100.00;98778.38;1673461;85;21170;-70
2022/05/28 02:31:25;;;;;;;;;;;;;;;9.60;100.00;98772.87;1683712;85;20122;-69
2022/05/28 02:33:59;;;;;;;;;;;;;;;9.68;100.00;98774.54;1687190;85;20421;-69
2022/05/28 02:36:28;;;;;;;;;;;;;;;9.67;100.00;98769.62;1687104;83;20440;-70
2022/05/28 02:39:00;;;;;;;;;;;;;;;9.66;100.00;98772.13;1680211;85;20145;-70
2022/05/28 02:41:38;;;;;;;;;;;;;;;9.65;100.00;98773.82;1687186;85;21173;-70
2022/05/28 02:44:05;;;;;;;;;;;;;;;9.63;100.00;98787.05;1687086;85;20121;-70
2022/05/28 02:46:35;;;;;;;;;;;;;;;9.60;100.00;98785.20;1686531;85;20090;-70
2022/05/28 02:49:08;;;;;;;;;;;;;;;9.59;100.00;98781.42;1686881;83;20133;-71
2022/05/28 02:51:34;;;;;;;;;;;;;;;9.58;100.00;98783.35;1686002;85;20156;-69
2022/05/28 02:54:09;;;;;;;;;;;;;;;9.59;100.00;98786.90;1687023;85;21262;-71
2022/05/28 02:56:32;;;;;;;;;;;;;;;9.62;100.00;98787.61;1686020;85;20132;-71
2022/05/28 02:59:04;;;;;;;;;;;;;;;9.64;100.00;98790.03;1687490;85;20110;-70
2022/05/28 03:01:33;;;;;;;;;;;;;;;9.65;100.00;98790.27;1686777;85;20095;-69
2022/05/28 03:04:03;;;;;;;;;;;;;;;9.65;100.00;98795.75;1685685;85;20425;-71
2022/05/28 03:06:35;;;;;;;;;;;;;;;9.64;100.00;98799.05;1686055;85;21169;-70
2022/05/28 03:09:10;;;;;;;;;;;;;;;9.65;100.00;98804.77;1685970;85;20114;-69
2022/05/28 03:11:44;;;;;;;;;;;;;;;9.65;100.00;98803.40;1685467;85;20094;-70
2022/05/28 03:14:11;;;;;;;;;;;;;;;9.66;100.00;98805.58;1686115;85;20085;-71
2022/05/28 03:16:58;;;;;;;;;;;;;;;9.68;100.00;98803.31;1685243;85;20129;-71
2022/05/28 03:19:17;;;;;;;;;;;;;;;9.69;100.00;98798.88;1678615;83;21132;-70
2022/05/28 03:21:49;;;;;;;;;;;;;;;9.72;100.00;98806.44;1689207;85;20099;-70
2022/05/28 03:24:13;;;;;;;;;;;;;;;9.75;100.00;98811.27;1692434;85;20123;-70
2022/05/28 03:26:45;;;;;;;;;;;;;;;9.77;100.00;98799.41;1686636;83;20167;-70
2022/05/28 03:29:18;;;;;;;;;;;;;;;9.80;100.00;98812.46;1655405;86;20115;-70
2022/05/28 03:31:54;;;;;;;;;;;;;;;9.84;100.00;98806.53;1665565;86;21941;-70
2022/05/28 03:34:18;;;;;;;;;;;;;;;9.85;100.00;98809.51;1682614;84;20330;-69
2022/05/28 03:36:45;;;;;;;;;;;;;;;9.85;100.00;98820.47;1694885;84;20444;-69
2022/05/28 03:39:11;;;;;;;;;;;;;;;9.87;100.00;98813.30;1692729;83;20114;-69
2022/05/28 03:41:37;;;;;;;;;;;;;;;9.88;100.00;98813.53;1666244;85;20097;-70
2022/05/28 03:44:04;;;;;;;;;;;;;;;9.93;100.00;98817.46;1694646;84;21061;-69
2022/05/28 03:46:33;;;;;;;;;;;;;;;9.98;100.00;98814.54;1693992;84;20085;-69
2022/05/28 03:49:08;;;;;;;;;;;;;;;10.01;100.00;98824.84;1693588;84;20097;-69
2022/05/28 03:51:35;;;;;;;;;;;;;;;10.03;100.00;98819.03;1693702;84;20479;-70
2022/05/28 03:54:02;;;;;;;;;;;;;;;10.07;100.00;98811.76;1693671;84;20109;-71
2022/05/28 03:56:33;;;;;;;;;;;;;;;10.11;100.00;98814.88;1693479;85;21157;-71
2022/05/28 03:59:00;;;;;;;;;;;;;;;10.15;100.00;98804.06;1694092;84;20109;-70
2022/05/28 04:01:28;;;;;;;;;;;;;;;10.18;100.00;98804.77;1693327;84;20224;-70
2022/05/28 04:03:55;;;;;;;;;;;;;;;10.20;100.00;98808.82;1693023;84;20107;-70
2022/05/28 04:06:22;;;;;;;;;;;;;;;10.25;100.00;98807.83;1693170;85;20085;-71
2022/05/28 04:08:48;;;;;;;;;;;;;;;10.29;100.00;98807.97;1693112;84;21151;-71
2022/05/28 04:11:17;;;;;;;;;;;;;;;10.35;100.00;98803.33;1693108;84;20094;-71
2022/05/28 04:13:44;;;;;;;;;;;;;;;10.38;100.00;98811.47;1666075;85;20108;-72
2022/05/28 04:16:12;;;;;;;;;;;;;;;10.39;100.00;98820.73;1693445;84;20672;-71
2022/05/28 04:18:38;;;;;;;;;;;;;;;10.43;100.00;98816.73;1693403;85;20089;-71
2022/05/28 04:21:04;;;;;;;;;;;;;;;10.49;100.00;98816.78;1692609;84;21825;-71
2022/05/28 04:23:31;;;;;;;;;;;;;;;10.56;100.00;98819.23;1686046;85;20152;-70
2022/05/28 04:25:58;;;;;;;;;;;;;;;10.64;100.00;98820.31;1682387;85;20425;-71
2022/05/28 04:28:24;;;;;;;;;;;;;;;10.69;100.00;98821.48;1674292;85;20636;-71
2022/05/28 04:30:50;;;;;;;;;;;;;;;10.70;100.00;98825.04;1686719;85;20078;-70
2022/05/28 04:33:17;;;;;;;;;;;;;;;10.70;100.00;98820.35;1686097;85;21211;-70
2022/05/28 04:35:43;;;;;;;;;;;;;;;10.69;100.00;98818.75;1685980;85;20761;-70
2022/05/28 04:38:09;;;;;;;;;;;;;;;10.68;100.00;98830.06;1685956;85;20133;-70
2022/05/28 04:40:36;;;;;;;;;;;;;;;10.65;100.00;98845.82;1666661;85;20110;-71
2022/05/28 04:43:03;;;;;;;;;;;;;;;10.65;100.00;98839.77;1686006;85;20206;-71
2022/05/28 04:45:30;;;;;;;;;;;;;;;10.71;100.00;98840.38;1686179;85;21149;-71
2022/05/28 04:47:56;;;;;;;;;;;;;;;10.75;100.00;98839.38;1685953;85;20089;-70
2022/05/28 04:50:23;;;;;;;;;;;;;;;10.81;100.00;98835.29;1686079;85;20114;-71
2022/05/28 04:52:50;;;;;;;;;;;;;;;10.90;100.00;98837.97;1686050;85;20126;-71
2022/05/28 04:55:17;;;;;;;;;;;;;;;10.99;100.00;98840.05;1686129;85;20445;-71
2022/05/28 04:57:43;;;;;;;;;;;;;;;11.01;100.00;98836.97;1686083;85;21202;-70
2022/05/28 05:00:16;;;;;;;;;;;;;;;11.01;100.00;98835.03;1686136;85;20428;-70
2022/05/28 05:02:42;;;;;;;;;;;;;;;11.07;100.00;98830.14;1686129;85;20452;-70
2022/05/28 05:05:09;;;;;;;;;;;;;;;11.17;100.00;98825.61;1686018;85;20074;-70
2022/05/28 05:07:35;;;;;;;;;;;;;;;11.24;100.00;98830.79;1686238;85;20086;-70
2022/05/28 05:10:03;;;;;;;;;;;;;;;11.27;100.00;98845.80;1686116;85;21139;-70
2022/05/28 05:12:31;;;;;;;;;;;;;;;11.34;100.00;98842.51;1686188;85;20098;-70
2022/05/28 05:14:58;;;;;;;;;;;;;;;11.40;100.00;98848.83;1686129;85;20426;-70
2022/05/28 05:17:24;;;;;;;;;;;;;;;11.49;100.00;98843.25;1686081;85;20106;-71
2022/05/28 05:19:54;;;;;;;;;;;;;;;11.51;100.00;98843.15;1686146;85;20114;-71
2022/05/28 05:22:20;;;;;;;;;;;;;;;11.52;100.00;98850.25;1686033;84;21252;-71
2022/05/28 05:24:47;;;;;;;;;;;;;;;11.51;100.00;98855.52;1686143;85;20117;-70
2022/05/28 05:27:13;;;;;;;;;;;;;;;11.49;100.00;98857.00;1686148;85;20174;-70
2022/05/28 05:29:40;;;;;;;;;;;;;;;11.46;100.00;98857.67;1666665;85;20102;-71
2022/05/28 05:32:07;;;;;;;;;;;;;;;11.44;100.00;98863.51;1686831;85;20102;-71
2022/05/28 05:34:34;;;;;;;;;;;;;;;11.46;100.00;98867.30;1686100;85;21146;-70
2022/05/28 05:37:01;;;;;;;;;;;;;;;11.43;100.00;98874.84;1666667;85;20127;-70
2022/05/28 05:39:27;;;;;;;;;;;;;;;11.42;100.00;98863.61;1686266;85;20420;-70
2022/05/28 05:41:55;;;;;;;;;;;;;;;11.44;100.00;98857.20;1686321;85;20141;-70
2022/05/28 05:44:22;;;;;;;;;;;;;;;11.44;99.75;98853.08;1686224;85;20098;-69
2022/05/28 05:46:48;;;;;;;;;;;;;;;11.49;99.93;98852.30;1686053;85;21235;-69
2022/05/28 05:49:14;;;;;;;;;;;;;;;11.59;98.53;98846.35;1686042;85;20082;-70
2022/05/28 05:51:43;;;;;;;;;;;;;;;11.71;98.26;98852.45;1686190;85;20118;-69
2022/05/28 05:54:09;;;;;;;;;;;;;;;11.83;97.81;98856.64;1686160;85;20110;-69
2022/05/28 05:56:36;;;;;;;;;;;;;;;12.01;98.24;98854.50;1686194;85;20117;-69
2022/05/28 05:59:02;;;;;;;;;;;;;;;12.22;97.86;98851.63;1686106;85;22075;-70
2022/05/28 06:01:29;;;;;;;;;;;;;;;12.45;95.97;98850.03;1686734;85;20090;-69
2022/05/28 06:03:55;;;;;;;;;;;;;;;12.60;92.15;98849.91;1686078;85;20417;-70
2022/05/28 06:06:22;;;;;;;;;;;;;;;12.68;91.73;98850.36;1686059;85;20149;-69
2022/05/28 06:08:48;;;;;;;;;;;;;;;12.83;93.50;98850.19;1686410;85;20097;-70
2022/05/28 06:11:15;;;;;;;;;;;;;;;12.94;93.35;98853.27;1686867;85;21133;-70
2022/05/28 06:13:41;;;;;;;;;;;;;;;13.03;92.02;98854.74;1685871;85;20097;-70
2022/05/28 06:16:08;;;;;;;;;;;;;;;13.14;89.49;98853.11;1678505;85;20149;-70
2022/05/28 06:18:36;;;;;;;;;;;;;;;13.21;89.03;98847.83;1678022;85;20085;-70
2022/05/28 06:21:02;;;;;;;;;;;;;;;13.29;88.40;98852.94;1687563;85;20151;-70
2022/05/28 06:23:29;;;;;;;;;;;;;;;13.29;86.88;98849.38;1687575;84;21146;-71
2022/05/28 06:25:55;;;;;;;;;;;;;;;13.27;85.18;98850.34;1686938;83;20464;-69
2022/05/28 06:28:22;;;;;;;;;;;;;;;13.25;85.11;98843.00;1687308;85;20097;-72
2022/05/28 06:30:51;;;;;;;;;;;;;;;13.30;86.29;98854.55;1684683;85;20097;-70
2022/05/28 06:33:18;;;;;;;;;;;;;;;13.42;85.92;98846.23;1687487;85;20098;-72
2022/05/28 06:35:45;;;;;;;;;;;;;;;13.65;84.84;98851.98;1687614;85;21756;-72
2022/05/28 06:38:11;;;;;;;;;;;;;;;13.85;84.40;98858.43;1687393;85;20086;-71
2022/05/28 06:40:37;;;;;;;;;;;;;;;13.98;82.92;98847.52;1687564;85;20086;-69
2022/05/28 06:43:04;;;;;;;;;;;;;;;14.02;81.89;98845.65;1686057;85;20476;-71
2022/05/28 06:45:30;;;;;;;;;;;;;;;14.08;81.73;98848.37;1686906;85;20170;-82
2022/05/28 06:47:57;;;;;;;;;;;;;;;14.21;80.66;98843.56;1687597;85;21092;-71
2022/05/28 06:53:08;;;;;;;;;;;;;;;14.45;76.68;98842.57;1687588;85;20465;-71
2022/05/28 06:55:37;;;;;;;;;;;;;;;14.47;76.61;98846.58;1687564;85;20145;-72
2022/05/28 06:58:06;;;;;;;;;;;;;;;14.59;75.35;98850.39;1687501;85;20106;-72
2022/05/28 07:00:34;;;;;;;;;;;;;;;14.73;73.62;98853.48;1687460;85;21182;-71
2022/05/28 07:03:01;;;;;;;;;;;;;;;14.80;74.66;98848.92;1687380;85;20118;-72
2022/05/28 07:05:29;;;;;;;;;;;;;;;14.87;74.65;98853.81;1668050;85;20106;-72
2022/05/28 07:07:56;;;;;;;;;;;;;;;14.88;75.10;98849.89;1687248;85;20492;-72
2022/05/28 07:10:23;;;;;;;;;;;;;;;14.92;71.16;98852.15;1687365;85;20130;-71
2022/05/28 07:12:50;;;;;;;;;;;;;;;14.97;70.37;98851.87;1687524;85;20421;-71
2022/05/28 07:15:16;;;;;;;;;;;;;;;15.04;70.41;98847.84;1687450;85;20098;-72
2022/05/28 07:17:44;;;;;;;;;;;;;;;15.14;70.21;98848.66;1687466;85;20182;-70
2022/05/28 07:20:11;;;;;;;;;;;;;;;15.21;70.52;98845.25;1686274;85;20870;-70
2022/05/28 07:22:38;;;;;;;;;;;;;;;15.24;68.65;98850.63;1686413;84;20106;-70
2022/05/28 07:25:07;;;;;;;;;;;;;;;15.28;71.12;98848.16;1687451;85;21100;-69
2022/05/28 07:27:33;;;;;;;;;;;;;;;15.43;69.16;98849.25;1686832;85;20121;-75
2022/05/28 07:30:00;;;;;;;;;;;;;;;15.50;68.71;98842.48;1687012;85;20173;-70
2022/05/28 07:32:29;;;;;;;;;;;;;;;15.56;67.30;98842.98;1686057;85;20097;-72
2022/05/28 07:34:54;;;;;;;;;;;;;;;15.64;69.09;98859.94;1686013;85;20110;-70
2022/05/28 07:37:21;;;;;;;;;;;;;;;15.80;67.10;98851.77;1686045;85;21162;-71
2022/05/28 07:39:48;;;;;;;;;;;;;;;16.01;63.55;98854.70;1686004;85;20121;-69
2022/05/28 07:42:14;;;;;;;;;;;;;;;16.14;63.80;98846.44;1685993;85;20090;-69
2022/05/28 07:44:40;;;;;;;;;;;;;;;16.19;62.09;98842.75;1685984;85;20438;-69
2022/05/28 07:47:07;;;;;;;;;;;;;;;16.06;60.61;98846.90;1685784;85;20106;-69
2022/05/28 07:49:35;;;;;;;;;;;;;;;15.85;61.94;98859.77;1685645;85;21191;-69
2022/05/28 07:52:04;;;;;;;;;;;;;;;15.74;64.18;98854.61;1685934;85;20429;-68
2022/05/28 07:54:31;;;;;;;;;;;;;;;15.94;65.09;98851.81;1685975;85;20098;-67
2022/05/28 07:56:57;;;;;;;;;;;;;;;16.17;64.43;98851.23;1686079;85;20371;-78
2022/05/28 07:59:24;;;;;;;;;;;;;;;16.32;62.43;98850.28;1686052;85;20154;-71
2022/05/28 08:01:50;;;;;;;;;;;;;;;16.29;59.55;98854.38;1686094;85;21133;-72
2022/05/28 08:04:17;;;;;;;;;;;;;;;16.24;61.43;98855.48;1686157;85;20432;-72
2022/05/28 08:06:43;;;;;;;;;;;;;;;16.25;61.66;98852.93;1686165;85;20137;-72
2022/05/28 08:09:12;;;;;;;;;;;;;;;16.44;62.46;98851.47;1685982;85;20141;-73
2022/05/28 08:11:38;;;;;;;;;;;;;;;16.47;58.01;98856.85;1686062;85;20426;-70
2022/05/28 08:14:06;;;;;;;;;;;;;;;16.47;56.01;98854.08;1686045;85;20090;-73
2022/05/28 08:16:34;;;;;;;;;;;;;;;16.56;58.67;98850.47;1685985;85;20121;-73
2022/05/28 08:19:00;;;;;;;;;;;;;;;16.64;59.39;98849.99;1685914;85;20127;-72
2022/05/28 08:24:12;;;;;;;;;;;;;;;16.83;59.08;98858.20;1672136;84;20084;-72
2022/05/28 08:26:39;;;;;;;;;;;;;;;17.22;58.98;98850.43;1698618;84;21255;-72
2022/05/28 08:29:07;;;;;;;;;;;;;;;17.75;55.88;98848.88;1698582;84;20420;-73
2022/05/28 08:31:35;;;;;;;;;;;;;;;18.18;55.80;98833.41;1698689;84;20140;-73
2022/05/28 08:34:01;;;;;;;;;;;;;;;18.41;52.07;98836.80;1698902;84;20073;-73
2022/05/28 08:36:29;;;;;;;;;;;;;;;18.40;51.76;98850.48;1698748;84;20097;-72
2022/05/28 08:38:56;;;;;;;;;;;;;;;18.33;50.86;98843.47;1698577;84;21299;-77
2022/05/28 08:41:25;;;;;;;;;;;;;;;18.23;52.55;98841.99;1698795;84;20582;-75
2022/05/28 08:44:10;;;;;;;;;;;;;;;18.05;52.21;98864.05;1699128;84;20125;-77
2022/05/28 08:46:37;;;;;;;;;;;;;;;18.00;54.21;98851.89;1698510;84;20412;-74
2022/05/28 08:49:06;;;;;;;;;;;;;;;18.27;50.72;98846.40;1698756;84;20125;-72
2022/05/28 08:51:48;;;;;;;;;;;;;;;18.55;50.15;98847.78;1698805;84;21099;-73
2022/05/28 08:54:41;;;;;;;;;;;;;;;18.68;49.63;98835.20;1696047;84;20097;-74
2022/05/28 08:57:14;;;;;;;;;;;;;;;18.69;49.11;98849.31;1700448;84;20096;-70
2022/05/28 08:59:50;;;;;;;;;;;;;;;18.53;47.51;98851.55;1700138;84;20101;-70
2022/05/28 09:02:37;;;;;;;;;;;;;;;18.35;48.48;98844.48;1700370;84;20113;-69
2022/05/28 09:05:07;;;;;;;;;;;;;;;18.31;49.18;98851.39;1700202;84;21881;-72
2022/05/28 09:07:34;;;;;;;;;;;;;;;18.23;48.77;98857.27;1699557;84;20149;-71
2022/05/28 09:10:00;;;;;;;;;;;;;;;18.17;47.79;98856.82;1700412;84;20113;-71
2022/05/28 09:12:30;;;;;;;;;;;;;;;18.18;50.50;98858.42;1700281;84;20113;-71
2022/05/28 09:14:56;;;;;;;;;;;;;;;18.31;50.17;98867.27;1700450;84;20125;-72
2022/05/28 09:17:32;;;;;;;;;;;;;;;18.63;48.89;98866.14;1700393;84;21084;-72
2022/05/28 09:20:06;;;;;;;;;;;;;;;18.95;48.25;98861.61;1700209;84;20097;-72
2022/05/28 09:22:32;;;;;;;;;;;;;;;19.22;47.36;98861.33;1699325;84;20109;-70
2022/05/28 09:24:58;;;;;;;;;;;;;;;19.57;46.92;98860.73;1687349;85;20440;-72
2022/05/28 09:27:29;;;;;;;;;;;;;;;19.74;45.38;98849.62;1686943;85;20110;-71
2022/05/28 09:30:18;;;;;;;;;;;;;;;19.97;46.14;98847.09;1686142;85;21168;-71
2022/05/28 09:32:54;;;;;;;;;;;;;;;20.23;45.39;98849.48;1686200;85;20161;-72
2022/05/28 09:35:36;;;;;;;;;;;;;;;20.49;43.63;98849.72;1686489;85;20094;-70
2022/05/28 09:38:18;;;;;;;;;;;;;;;20.62;43.95;98850.91;1685565;85;20118;-70
2022/05/28 09:41:00;;;;;;;;;;;;;;;20.48;44.42;98851.52;1686436;85;20428;-72
2022/05/28 09:43:54;;;;;;;;;;;;;;;20.13;43.07;98855.88;1685223;85;21177;-71
2022/05/28 09:46:36;;;;;;;;;;;;;;;19.66;43.89;98845.81;1686009;85;20122;-72
2022/05/28 09:49:15;;;;;;;;;;;;;;;19.12;45.12;98853.13;1671493;85;20077;-71
2022/05/28 09:52:07;;;;;;;;;;;;;;;18.80;47.46;98851.58;1676971;85;20117;-71
2022/05/28 09:54:34;;;;;;;;;;;;;;;18.85;47.59;98842.87;1671014;85;20556;-71
2022/05/28 09:57:26;;;;;;;;;;;;;;;19.14;47.79;98829.89;1671803;85;21824;-71
2022/05/28 10:00:01;;;;;;;;;;;;;;;19.51;46.94;98835.81;1672854;85;20118;-71
2022/05/28 10:02:37;;;;;;;;;;;;;;;19.58;46.45;98836.67;1668133;85;20138;-71
2022/05/28 10:05:16;;;;;;;;;;;;;;;19.47;46.17;98842.77;1653708;86;20150;-70
2022/05/28 10:07:47;;;;;;;;;;;;;;;19.17;46.61;98836.66;1637277;87;20154;-70
2022/05/28 10:10:24;;;;;;;;;;;;;;;18.89;46.65;98842.30;1654114;87;20674;-71
2022/05/28 10:12:51;;;;;;;;;;;;;;;18.63;47.30;98838.34;1654216;87;20465;-71
2022/05/28 10:15:21;;;;;;;;;;;;;;;18.32;44.50;98848.02;1652958;86;20146;-74
2022/05/28 10:17:56;;;;;;;;;;;;;;;18.16;45.60;98831.61;1654197;87;20614;-73
2022/05/28 10:20:23;;;;;;;;;;;;;;;18.22;46.37;98834.25;1653493;86;20145;-72
2022/05/28 10:22:51;;;;;;;;;;;;;;;18.26;45.43;98826.74;1654246;86;21134;-71
2022/05/28 10:25:28;;;;;;;;;;;;;;;18.21;46.22;98832.65;1666404;86;20129;-74
2022/05/28 10:27:54;;;;;;;;;;;;;;;18.47;46.76;98833.86;1648794;85;20191;-72
2022/05/28 10:30:24;;;;;;;;;;;;;;;18.88;46.13;98832.95;1665154;86;20173;-72
2022/05/28 10:32:51;;;;;;;;;;;;;;;19.33;45.00;98829.59;1641125;86;20129;-71
2022/05/28 10:35:26;;;;;;;;;;;;;;;19.77;46.10;98823.77;1666570;86;21172;-70
2022/05/28 10:37:54;;;;;;;;;;;;;;;20.28;43.45;98805.89;1666614;86;20492;-69
2022/05/28 10:40:23;;;;;;;;;;;;;;;20.85;44.03;98823.96;1666420;85;20133;-71
2022/05/28 10:42:52;;;;;;;;;;;;;;;21.05;40.58;98803.39;1666807;86;20172;-72
2022/05/28 10:45:19;;;;;;;;;;;;;;;21.00;41.32;98805.99;1666596;86;20453;-73
2022/05/28 10:48:02;;;;;;;;;;;;;;;21.09;40.72;98802.17;1666644;86;21060;-74
2022/05/28 10:50:49;;;;;;;;;;;;;;;21.01;38.37;98792.84;1666465;85;20129;-72
2022/05/28 10:53:35;;;;;;;;;;;;;;;20.86;38.58;98792.68;1666393;86;20117;-69
2022/05/28 10:56:11;;;;;;;;;;;;;;;20.78;38.85;98793.92;1666586;86;20129;-71
2022/05/28 10:58:57;;;;;;;;;;;;;;;20.81;38.21;98796.67;1666508;86;20141;-72
2022/05/28 11:01:45;;;;;;;;;;;;;;;20.85;37.78;98793.88;1666350;86;21120;-72
2022/05/28 11:04:18;;;;;;;;;;;;;;;21.08;39.54;98786.63;1666812;86;20425;-72
2022/05/28 11:06:52;;;;;;;;;;;;;;;21.39;36.66;98802.27;1666562;86;20210;-70
2022/05/28 11:09:28;;;;;;;;;;;;;;;21.18;36.35;98796.77;1666786;86;20117;-69
2022/05/28 11:12:02;;;;;;;;;;;;;;;20.82;36.92;98800.26;1666565;86;20110;-72
2022/05/28 11:14:45;;;;;;;;;;;;;;;20.66;38.10;98794.55;1666346;86;21172;-70
2022/05/28 11:17:15;;;;;;;;;;;;;;;20.58;36.23;98795.75;1693040;84;20084;-70
2022/05/28 11:19:53;;;;;;;;;;;;;;;20.35;36.71;98790.56;1698941;84;20097;-69
2022/05/28 11:22:35;;;;;;;;;;;;;;;19.95;36.35;98795.16;1698957;84;20439;-69
2022/05/28 11:25:08;;;;;;;;;;;;;;;19.97;36.52;98792.77;1688872;84;20425;-69
2022/05/28 11:27:43;;;;;;;;;;;;;;;20.42;37.42;98787.80;1685846;85;22133;-70
2022/05/28 11:30:37;;;;;;;;;;;;;;;20.99;36.91;98791.84;1647962;85;20110;-73
2022/05/28 11:33:07;;;;;;;;;;;;;;;21.20;36.34;98794.37;1685650;85;20123;-71
2022/05/28 11:35:42;;;;;;;;;;;;;;;21.02;34.00;98791.03;1685856;85;20117;-72
2022/05/28 11:38:24;;;;;;;;;;;;;;;20.72;35.04;98792.14;1686083;85;20090;-70
2022/05/28 11:41:18;;;;;;;;;;;;;;;20.80;34.73;98798.50;1684024;85;21131;-70
2022/05/28 11:44:05;;;;;;;;;;;;;;;21.08;33.25;98799.19;1685998;85;20114;-68
2022/05/28 11:46:44;;;;;;;;;;;;;;;21.37;31.82;98794.30;1686139;85;20428;-69
2022/05/28 11:52:12;;;;;;;;;;;;;;;21.65;31.24;98806.52;1679822;85;20086;-68
2022/05/28 11:55:15;;;;;;;;;;;;;;;21.37;31.38;98795.69;1661196;85;21178;-69
2022/05/28 11:58:12;;;;;;;;;;;;;;;21.04;31.97;98794.22;1683418;85;20487;-68
2022/05/28 12:00:39;;;;;;;;;;;;;;;20.72;33.01;98804.09;1686220;85;20098;-68
2022/05/28 12:03:19;;;;;;;;;;;;;;;20.38;33.75;98802.94;1686195;85;20412;-68
2022/05/28 12:05:52;;;;;;;;;;;;;;;20.26;33.58;98796.34;1686051;85;20176;-68
2022/05/28 12:08:47;;;;;;;;;;;;;;;20.58;34.36;98797.73;1686287;85;21204;-68
2022/05/28 12:11:32;;;;;;;;;;;;;;;21.08;35.62;98790.81;1686060;85;20139;-68
2022/05/28 12:14:02;;;;;;;;;;;;;;;21.34;32.69;98791.55;1686267;85;20086;-68
2022/05/28 12:16:37;;;;;;;;;;;;;;;21.13;31.76;98793.80;1686005;85;20094;-68
2022/05/28 12:19:17;;;;;;;;;;;;;;;20.69;31.77;98792.94;1686537;85;20133;-68
2022/05/28 12:21:44;;;;;;;;;;;;;;;20.24;32.40;98791.16;1686151;85;22081;-68
2022/05/28 12:24:21;;;;;;;;;;;;;;;19.87;33.63;98790.77;1686195;85;20433;-68
2022/05/28 12:27:00;;;;;;;;;;;;;;;19.80;34.17;98787.38;1689004;84;20085;-69
2022/05/28 12:29:45;;;;;;;;;;;;;;;20.15;32.25;98767.11;1692197;85;20105;-68
2022/05/28 12:32:21;;;;;;;;;;;;;;;20.58;30.39;98787.38;1693247;85;20094;-69
2022/05/28 12:35:06;;;;;;;;;;;;;;;20.62;29.57;98783.99;1694066;84;21209;-68
2022/05/28 12:37:39;;;;;;;;;;;;;;;20.46;29.64;98778.64;1693621;84;20098;-69
2022/05/28 12:40:32;;;;;;;;;;;;;;;20.23;30.60;98780.41;1693697;85;20105;-69
2022/05/28 12:43:02;;;;;;;;;;;;;;;20.01;30.75;98783.81;1693701;85;20122;-69
2022/05/28 12:45:37;;;;;;;;;;;;;;;19.69;31.84;98774.82;1688704;85;20457;-68
2022/05/28 12:48:07;;;;;;;;;;;;;;;19.68;33.18;98781.58;1693706;83;21789;-69
2022/05/28 12:50:41;;;;;;;;;;;;;;;20.02;34.12;98790.98;1693276;85;20152;-68
2022/05/28 12:53:11;;;;;;;;;;;;;;;20.28;34.38;98781.41;1691590;85;20073;-69
2022/05/28 12:55:39;;;;;;;;;;;;;;;20.48;32.07;98784.61;1693604;85;20093;-69
2022/05/28 12:58:10;;;;;;;;;;;;;;;20.73;32.20;98776.41;1693662;84;20452;-69
2022/05/28 13:00:43;;;;;;;;;;;;;;;21.27;31.00;98774.23;1693541;84;21173;-69
2022/05/28 13:03:10;;;;;;;;;;;;;;;21.48;29.91;98783.67;1693548;84;20114;-69
2022/05/28 13:05:43;;;;;;;;;;;;;;;21.25;29.16;98784.21;1666950;85;20475;-69
2022/05/28 13:08:13;;;;;;;;;;;;;;;21.04;30.32;98782.27;1693592;84;20097;-69
2022/05/28 13:10:50;;;;;;;;;;;;;;;21.25;30.47;98775.84;1693933;84;20169;-69
2022/05/28 13:13:36;;;;;;;;;;;;;;;21.54;32.43;98787.63;1693685;85;21320;-69
2022/05/28 13:16:20;;;;;;;;;;;;;;;21.97;30.88;98783.94;1692918;85;20073;-69
2022/05/28 13:19:05;;;;;;;;;;;;;;;22.27;29.82;98784.73;1693646;85;20127;-69